ETD91 OMAA-LGAV
Flight info
| Callsign | ETD91 |
|---|---|
| Flight time | N/A |
| Altitude | 34000 |
| Route | BOSEV N563 ALPOB L768 VATIM L550 NOVPA J981 DATOK L550 GENIV L324 LAKTO ANIDE AKINA UL995 PIDAX L995 VARIX |
| Aircraft | A320/M-S/C |
Departure
| Time | 2026-04-28 05:31 |
|---|---|
| Airport | Zayed International Airport (OMAA) |
Arrival
| Time | N/A |
|---|---|
| Airport | Athens Eleftherios Venizelos International Airport (LGAV) |
| Time | Latitude | Longitude | Altitude | Speed | Heading |
|---|---|---|---|---|---|
| 2026-04-28 05:30 | 24.30640 | 54.82752 | 7583 ft | 278 kts | 137° |
| 2026-04-28 05:31 | 24.28990 | 54.83829 | 8246 ft | 279 kts | 163° |
| 2026-04-28 05:31 | 24.27080 | 54.84070 | 8935 ft | 277 kts | 188° |
| 2026-04-28 05:31 | 24.25263 | 54.83436 | 9618 ft | 274 kts | 213° |
| 2026-04-28 05:31 | 24.23844 | 54.82095 | 10369 ft | 269 kts | 228° |
| 2026-04-28 05:32 | 24.22534 | 54.80609 | 11047 ft | 272 kts | 233° |
| 2026-04-28 05:32 | 24.21654 | 54.78801 | 11717 ft | 269 kts | 254° |
| 2026-04-28 05:32 | 24.21433 | 54.76781 | 12346 ft | 272 kts | 276° |
| 2026-04-28 05:32 | 24.21980 | 54.74756 | 12490 ft | 295 kts | 298° |
| 2026-04-28 05:33 | 24.23207 | 54.72835 | 12586 ft | 320 kts | 306° |
| 2026-04-28 05:33 | 24.24611 | 54.70830 | 12670 ft | 342 kts | 307° |
| 2026-04-28 05:33 | 24.26111 | 54.68708 | 12821 ft | 361 kts | 307° |
| 2026-04-28 05:33 | 24.27656 | 54.66534 | 13562 ft | 361 kts | 307° |
| 2026-04-28 05:34 | 24.29210 | 54.64351 | 14166 ft | 365 kts | 307° |
| 2026-04-28 05:34 | 24.30776 | 54.62150 | 14803 ft | 368 kts | 306° |
| 2026-04-28 05:34 | 24.32360 | 54.59927 | 15427 ft | 371 kts | 306° |
| 2026-04-28 05:34 | 24.33957 | 54.57683 | 15999 ft | 374 kts | 306° |
| 2026-04-28 05:35 | 24.35565 | 54.55423 | 16554 ft | 377 kts | 306° |
| 2026-04-28 05:35 | 24.37064 | 54.53061 | 17071 ft | 378 kts | 295° |
| 2026-04-28 05:35 | 24.37958 | 54.50372 | 17607 ft | 376 kts | 280° |
| 2026-04-28 05:35 | 24.38138 | 54.47515 | 18153 ft | 375 kts | 264° |
| 2026-04-28 05:36 | 24.37876 | 54.44678 | 18746 ft | 375 kts | 268° |
| 2026-04-28 05:36 | 24.38126 | 54.41818 | 19213 ft | 381 kts | 281° |
| 2026-04-28 05:36 | 24.39018 | 54.39070 | 19727 ft | 386 kts | 294° |
| 2026-04-28 05:36 | 24.40554 | 54.36629 | 20221 ft | 394 kts | 309° |
| 2026-04-28 05:37 | 24.42680 | 54.34701 | 20684 ft | 403 kts | 325° |
| 2026-04-28 05:37 | 24.45264 | 54.33433 | 21167 ft | 410 kts | 336° |
| 2026-04-28 05:37 | 24.47939 | 54.32410 | 21596 ft | 413 kts | 337° |
| 2026-04-28 05:37 | 24.50673 | 54.31389 | 22038 ft | 416 kts | 337° |
| 2026-04-28 05:38 | 24.53423 | 54.30380 | 22443 ft | 418 kts | 337° |
| 2026-04-28 05:38 | 24.56199 | 54.29372 | 22848 ft | 421 kts | 337° |
| 2026-04-28 05:38 | 24.58988 | 54.28368 | 23266 ft | 423 kts | 337° |
| 2026-04-28 05:38 | 24.61801 | 54.27361 | 23642 ft | 426 kts | 337° |
| 2026-04-28 05:39 | 24.64584 | 54.26282 | 24043 ft | 424 kts | 332° |
| 2026-04-28 05:39 | 24.67215 | 54.24810 | 24402 ft | 422 kts | 324° |
| 2026-04-28 05:39 | 24.69595 | 54.22949 | 24791 ft | 419 kts | 316° |
| 2026-04-28 05:39 | 24.71728 | 54.20787 | 25166 ft | 418 kts | 312° |
| 2026-04-28 05:40 | 24.73832 | 54.18563 | 25526 ft | 420 kts | 311° |
| 2026-04-28 05:40 | 24.75939 | 54.16320 | 25858 ft | 422 kts | 311° |
| 2026-04-28 05:40 | 24.78055 | 54.14058 | 26211 ft | 424 kts | 311° |
| 2026-04-28 05:40 | 24.80142 | 54.11818 | 26572 ft | 425 kts | 311° |
| 2026-04-28 05:41 | 24.82264 | 54.09535 | 26948 ft | 426 kts | 311° |
| 2026-04-28 05:41 | 24.84301 | 54.07172 | 27267 ft | 425 kts | 304° |
| 2026-04-28 05:41 | 24.85978 | 54.04513 | 27613 ft | 422 kts | 298° |
| 2026-04-28 05:41 | 24.87524 | 54.01753 | 27933 ft | 424 kts | 297° |
| 2026-04-28 05:42 | 24.89068 | 53.98973 | 28248 ft | 426 kts | 297° |
| 2026-04-28 05:42 | 24.90611 | 53.96183 | 28577 ft | 427 kts | 297° |
| 2026-04-28 05:42 | 24.92157 | 53.93375 | 28838 ft | 430 kts | 297° |
| 2026-04-28 05:42 | 24.93708 | 53.90548 | 29162 ft | 431 kts | 297° |
| 2026-04-28 05:43 | 24.95255 | 53.87721 | 29450 ft | 433 kts | 296° |
| 2026-04-28 05:43 | 24.96818 | 53.84859 | 29706 ft | 436 kts | 296° |
| 2026-04-28 05:43 | 24.99923 | 53.79160 | 29809 ft | 435 kts | 296° |
| 2026-04-28 05:44 | 25.03354 | 53.73635 | 29816 ft | 442 kts | 308° |
| 2026-04-28 05:44 | 25.07785 | 53.68885 | 29817 ft | 445 kts | 311° |
| 2026-04-28 05:45 | 25.12270 | 53.64170 | 29817 ft | 445 kts | 311° |
| 2026-04-28 05:45 | 25.16757 | 53.59462 | 29815 ft | 445 kts | 311° |
| 2026-04-28 05:46 | 25.21252 | 53.54751 | 29815 ft | 445 kts | 311° |
| 2026-04-28 05:46 | 25.25748 | 53.50042 | 29814 ft | 445 kts | 311° |
| 2026-04-28 05:47 | 25.30201 | 53.45293 | 29820 ft | 444 kts | 310° |
| 2026-04-28 05:47 | 25.34599 | 53.40538 | 29829 ft | 445 kts | 310° |
| 2026-04-28 05:48 | 25.39023 | 53.35755 | 29847 ft | 445 kts | 310° |
| 2026-04-28 05:48 | 25.43445 | 53.30972 | 29851 ft | 445 kts | 310° |
| 2026-04-28 05:49 | 25.47868 | 53.26189 | 29853 ft | 445 kts | 310° |
| 2026-04-28 05:49 | 25.52296 | 53.21387 | 29854 ft | 445 kts | 310° |
| 2026-04-28 05:50 | 25.56721 | 53.16582 | 29848 ft | 446 kts | 310° |
| 2026-04-28 05:50 | 25.61150 | 53.11770 | 29833 ft | 446 kts | 310° |
| 2026-04-28 05:51 | 25.65585 | 53.06950 | 29833 ft | 446 kts | 310° |
| 2026-04-28 05:51 | 25.70012 | 53.02127 | 29872 ft | 447 kts | 308° |
| 2026-04-28 05:52 | 25.71972 | 52.99486 | 30157 ft | 440 kts | 299° |
| 2026-04-28 05:52 | 25.73471 | 52.96609 | 30583 ft | 432 kts | 292° |
| 2026-04-28 05:52 | 25.74841 | 52.93657 | 31009 ft | 429 kts | 292° |
| 2026-04-28 05:52 | 25.76193 | 52.90720 | 31387 ft | 427 kts | 292° |
| 2026-04-28 05:53 | 25.77539 | 52.87783 | 31767 ft | 425 kts | 292° |
| 2026-04-28 05:53 | 25.78873 | 52.84861 | 32174 ft | 422 kts | 292° |
| 2026-04-28 05:53 | 25.80195 | 52.81960 | 32565 ft | 420 kts | 292° |
| 2026-04-28 05:53 | 25.81506 | 52.79074 | 32922 ft | 418 kts | 292° |
| 2026-04-28 05:54 | 25.82806 | 52.76202 | 33281 ft | 416 kts | 292° |
| 2026-04-28 05:54 | 25.84099 | 52.73341 | 33624 ft | 414 kts | 292° |
| 2026-04-28 05:54 | 25.85392 | 52.70471 | 33778 ft | 416 kts | 292° |
| 2026-04-28 05:54 | 25.86683 | 52.67605 | 33818 ft | 415 kts | 292° |
| 2026-04-28 05:55 | 25.89247 | 52.61895 | 33831 ft | 411 kts | 292° |
| 2026-04-28 05:55 | 25.91756 | 52.56224 | 33831 ft | 412 kts | 291° |
| 2026-04-28 05:56 | 25.94279 | 52.50506 | 33830 ft | 412 kts | 291° |
| 2026-04-28 05:56 | 25.96795 | 52.44803 | 33830 ft | 411 kts | 291° |
| 2026-04-28 05:57 | 25.99317 | 52.39092 | 33829 ft | 412 kts | 291° |
| 2026-04-28 05:57 | 26.01865 | 52.33384 | 33828 ft | 411 kts | 291° |
| 2026-04-28 05:58 | 26.04407 | 52.27689 | 33827 ft | 411 kts | 291° |
| 2026-04-28 05:58 | 26.06952 | 52.21984 | 33826 ft | 411 kts | 291° |
| 2026-04-28 05:59 | 26.09477 | 52.16318 | 33826 ft | 411 kts | 291° |
| 2026-04-28 05:59 | 26.12021 | 52.10605 | 33825 ft | 411 kts | 291° |
| 2026-04-28 06:00 | 26.14557 | 52.04901 | 33824 ft | 411 kts | 291° |
| 2026-04-28 06:00 | 26.17094 | 51.99196 | 33823 ft | 411 kts | 291° |
| 2026-04-28 06:01 | 26.19650 | 51.93499 | 33821 ft | 411 kts | 291° |
| 2026-04-28 06:01 | 26.21744 | 51.88745 | 33820 ft | 411 kts | 291° |
| 2026-04-28 06:02 | 26.24258 | 51.83038 | 33782 ft | 407 kts | 291° |
| 2026-04-28 06:02 | 26.25488 | 51.80256 | 33411 ft | 397 kts | 291° |
| 2026-04-28 06:02 | 26.26723 | 51.77478 | 32436 ft | 403 kts | 291° |
| 2026-04-28 06:03 | 26.27970 | 51.74682 | 31981 ft | 402 kts | 291° |
| 2026-04-28 06:03 | 26.29223 | 51.71867 | 31872 ft | 410 kts | 291° |
| 2026-04-28 06:03 | 26.31792 | 51.66095 | 31835 ft | 419 kts | 291° |
| 2026-04-28 06:04 | 26.34366 | 51.60321 | 31814 ft | 418 kts | 291° |
| 2026-04-28 06:04 | 26.36953 | 51.54519 | 31811 ft | 417 kts | 291° |
| 2026-04-28 06:05 | 26.39105 | 51.48574 | 31810 ft | 412 kts | 284° |
| 2026-04-28 06:05 | 26.41024 | 51.42533 | 31808 ft | 412 kts | 284° |
| 2026-04-28 06:06 | 26.42922 | 51.36521 | 31806 ft | 411 kts | 284° |
| 2026-04-28 06:06 | 26.44856 | 51.30500 | 31804 ft | 411 kts | 284° |
| 2026-04-28 06:07 | 26.46783 | 51.24479 | 31802 ft | 411 kts | 284° |
| 2026-04-28 06:07 | 26.48692 | 51.18513 | 31801 ft | 410 kts | 284° |
| 2026-04-28 06:08 | 26.50605 | 51.12521 | 31800 ft | 410 kts | 284° |
| 2026-04-28 06:08 | 26.52517 | 51.06522 | 31798 ft | 410 kts | 284° |
| 2026-04-28 06:09 | 26.54428 | 51.00520 | 31796 ft | 410 kts | 284° |
| 2026-04-28 06:09 | 26.56337 | 50.94510 | 31795 ft | 410 kts | 284° |
| 2026-04-28 06:10 | 26.58215 | 50.88506 | 31794 ft | 409 kts | 283° |
| 2026-04-28 06:10 | 26.60064 | 50.82540 | 31793 ft | 409 kts | 283° |
| 2026-04-28 06:11 | 26.61927 | 50.76527 | 31791 ft | 409 kts | 283° |
| 2026-04-28 06:11 | 26.63786 | 50.70519 | 31791 ft | 408 kts | 283° |
| 2026-04-28 06:12 | 26.65587 | 50.64494 | 31790 ft | 408 kts | 283° |
| 2026-04-28 06:12 | 26.67373 | 50.58470 | 31790 ft | 407 kts | 283° |
| 2026-04-28 06:13 | 26.69148 | 50.52471 | 31792 ft | 406 kts | 283° |
| 2026-04-28 06:13 | 26.70842 | 50.46457 | 31792 ft | 405 kts | 281° |
| 2026-04-28 06:14 | 26.72405 | 50.40401 | 31792 ft | 405 kts | 281° |
| 2026-04-28 06:14 | 26.73964 | 50.34351 | 31792 ft | 405 kts | 281° |
| 2026-04-28 06:15 | 26.75512 | 50.28337 | 31793 ft | 405 kts | 282° |
| 2026-04-28 06:15 | 26.77267 | 50.22322 | 31793 ft | 406 kts | 283° |
| 2026-04-28 06:16 | 26.79055 | 50.16329 | 31821 ft | 406 kts | 283° |
| 2026-04-28 06:16 | 26.80841 | 50.10338 | 31827 ft | 406 kts | 283° |
| 2026-04-28 06:17 | 26.82629 | 50.04336 | 31827 ft | 405 kts | 283° |
| 2026-04-28 06:18 | 26.85280 | 49.95398 | 31829 ft | 404 kts | 283° |
| 2026-04-28 06:18 | 26.87047 | 49.89429 | 31830 ft | 404 kts | 283° |
| 2026-04-28 06:19 | 26.88816 | 49.83450 | 31831 ft | 404 kts | 283° |
| 2026-04-28 06:19 | 26.90583 | 49.77472 | 31839 ft | 404 kts | 283° |
| 2026-04-28 06:20 | 26.92346 | 49.71504 | 31848 ft | 403 kts | 283° |
| 2026-04-28 06:20 | 26.94104 | 49.65540 | 31849 ft | 402 kts | 283° |
| 2026-04-28 06:21 | 26.95859 | 49.59577 | 31849 ft | 403 kts | 283° |
| 2026-04-28 06:21 | 26.97602 | 49.53649 | 31850 ft | 403 kts | 283° |
| 2026-04-28 06:22 | 26.99356 | 49.47670 | 31850 ft | 403 kts | 282° |
| 2026-04-28 06:22 | 27.01118 | 49.41704 | 31853 ft | 403 kts | 284° |
| 2026-04-28 06:23 | 27.03657 | 49.36012 | 31855 ft | 411 kts | 292° |
| 2026-04-28 06:23 | 27.06468 | 49.30421 | 31855 ft | 412 kts | 292° |
| 2026-04-28 06:24 | 27.09300 | 49.24827 | 31857 ft | 412 kts | 292° |
| 2026-04-28 06:24 | 27.12138 | 49.19245 | 31858 ft | 411 kts | 292° |
| 2026-04-28 06:25 | 27.14981 | 49.13661 | 31859 ft | 412 kts | 292° |
| 2026-04-28 06:25 | 27.17824 | 49.08080 | 31860 ft | 411 kts | 292° |
| 2026-04-28 06:26 | 27.20662 | 49.02510 | 31854 ft | 411 kts | 292° |
| 2026-04-28 06:26 | 27.23468 | 48.96915 | 31847 ft | 410 kts | 292° |
| 2026-04-28 06:27 | 27.26235 | 48.91353 | 31847 ft | 409 kts | 292° |
| 2026-04-28 06:27 | 27.29013 | 48.85770 | 31847 ft | 410 kts | 292° |
| 2026-04-28 06:28 | 27.31798 | 48.80175 | 31847 ft | 410 kts | 291° |
| 2026-04-28 06:28 | 27.34580 | 48.74579 | 31847 ft | 410 kts | 291° |
| 2026-04-28 06:29 | 27.37362 | 48.68980 | 31847 ft | 409 kts | 291° |
| 2026-04-28 06:29 | 27.40132 | 48.63397 | 31846 ft | 409 kts | 291° |
| 2026-04-28 06:30 | 27.42901 | 48.57811 | 31846 ft | 409 kts | 291° |
| 2026-04-28 06:30 | 27.45666 | 48.52225 | 31846 ft | 408 kts | 291° |
| 2026-04-28 06:31 | 27.48426 | 48.46643 | 31846 ft | 408 kts | 291° |
| 2026-04-28 06:31 | 27.51183 | 48.41061 | 31845 ft | 407 kts | 291° |
| 2026-04-28 06:32 | 27.53915 | 48.35520 | 31845 ft | 407 kts | 291° |
| 2026-04-28 06:32 | 27.56656 | 48.29954 | 31845 ft | 406 kts | 291° |
| 2026-04-28 06:33 | 27.59381 | 48.24378 | 31844 ft | 406 kts | 291° |
| 2026-04-28 06:33 | 27.62102 | 48.18812 | 31835 ft | 405 kts | 291° |
| 2026-04-28 06:34 | 27.64830 | 48.13239 | 31833 ft | 406 kts | 291° |
| 2026-04-28 06:34 | 27.67563 | 48.07662 | 31832 ft | 406 kts | 290° |
| 2026-04-28 06:35 | 27.70284 | 48.02088 | 31831 ft | 406 kts | 290° |
| 2026-04-28 06:35 | 27.73002 | 47.96505 | 31831 ft | 405 kts | 290° |
| 2026-04-28 06:36 | 27.75714 | 47.90934 | 31830 ft | 405 kts | 290° |
| 2026-04-28 06:36 | 27.78424 | 47.85365 | 31829 ft | 405 kts | 290° |
| 2026-04-28 06:37 | 27.81136 | 47.79788 | 31829 ft | 405 kts | 290° |
| 2026-04-28 06:37 | 27.83840 | 47.74214 | 31828 ft | 404 kts | 289° |
| 2026-04-28 06:38 | 27.85889 | 47.68426 | 31827 ft | 397 kts | 282° |
| 2026-04-28 06:38 | 27.87740 | 47.62551 | 31827 ft | 397 kts | 282° |
| 2026-04-28 06:39 | 27.89579 | 47.56657 | 31827 ft | 397 kts | 282° |
| 2026-04-28 06:39 | 27.91403 | 47.50773 | 31827 ft | 397 kts | 282° |
| 2026-04-28 06:40 | 27.93222 | 47.44879 | 31841 ft | 397 kts | 282° |
| 2026-04-28 06:40 | 27.95038 | 47.38976 | 31842 ft | 398 kts | 282° |
| 2026-04-28 06:41 | 27.96852 | 47.33065 | 31842 ft | 397 kts | 282° |
| 2026-04-28 06:41 | 27.98663 | 47.27150 | 31842 ft | 398 kts | 282° |
| 2026-04-28 06:42 | 28.00471 | 47.21231 | 31842 ft | 398 kts | 282° |
| 2026-04-28 06:42 | 28.02283 | 47.15293 | 31842 ft | 400 kts | 282° |
| 2026-04-28 06:43 | 28.04084 | 47.09378 | 31840 ft | 399 kts | 282° |
| 2026-04-28 06:43 | 28.05894 | 47.03422 | 31840 ft | 399 kts | 282° |
| 2026-04-28 06:44 | 28.07698 | 46.97474 | 31840 ft | 399 kts | 282° |
| 2026-04-28 06:44 | 28.09501 | 46.91520 | 31841 ft | 399 kts | 282° |
| 2026-04-28 06:45 | 28.11373 | 46.85567 | 31841 ft | 403 kts | 283° |
| 2026-04-28 06:45 | 28.13326 | 46.79660 | 31841 ft | 403 kts | 283° |
| 2026-04-28 06:46 | 28.15296 | 46.73726 | 31842 ft | 402 kts | 283° |
| 2026-04-28 06:46 | 28.17266 | 46.67797 | 31844 ft | 402 kts | 283° |
| 2026-04-28 06:47 | 28.19234 | 46.61873 | 31845 ft | 402 kts | 283° |
| 2026-04-28 06:47 | 28.21207 | 46.55932 | 31845 ft | 402 kts | 283° |
| 2026-04-28 06:48 | 28.23174 | 46.50000 | 31845 ft | 402 kts | 283° |
| 2026-04-28 06:48 | 28.24809 | 46.45065 | 31845 ft | 402 kts | 283° |
| 2026-04-28 06:49 | 28.27093 | 46.38162 | 31845 ft | 402 kts | 283° |
| 2026-04-28 06:49 | 28.29058 | 46.32213 | 31845 ft | 402 kts | 283° |
| 2026-04-28 06:50 | 28.31018 | 46.26266 | 31845 ft | 402 kts | 283° |
| 2026-04-28 06:50 | 28.32642 | 46.21333 | 31845 ft | 402 kts | 283° |
| 2026-04-28 06:51 | 28.34601 | 46.15373 | 31845 ft | 402 kts | 283° |
| 2026-04-28 06:51 | 28.36643 | 46.09446 | 31845 ft | 404 kts | 285° |
| 2026-04-28 06:52 | 28.38817 | 46.03559 | 31845 ft | 404 kts | 285° |
| 2026-04-28 06:52 | 28.41001 | 45.97669 | 31845 ft | 404 kts | 285° |
| 2026-04-28 06:53 | 28.43172 | 45.91818 | 31845 ft | 404 kts | 285° |
| 2026-04-28 06:53 | 28.45361 | 45.85919 | 31845 ft | 404 kts | 285° |
| 2026-04-28 06:54 | 28.47550 | 45.80014 | 31845 ft | 406 kts | 285° |
| 2026-04-28 06:54 | 28.49731 | 45.74126 | 31845 ft | 406 kts | 285° |
| 2026-04-28 06:55 | 28.51921 | 45.68207 | 31845 ft | 406 kts | 285° |
| 2026-04-28 06:55 | 28.54111 | 45.62279 | 31845 ft | 406 kts | 285° |
| 2026-04-28 06:56 | 28.56296 | 45.56357 | 31845 ft | 406 kts | 285° |
| 2026-04-28 06:56 | 28.58483 | 45.50418 | 31845 ft | 407 kts | 285° |
| 2026-04-28 06:57 | 28.60668 | 45.44477 | 31846 ft | 407 kts | 285° |
| 2026-04-28 06:57 | 28.62841 | 45.38560 | 31846 ft | 407 kts | 285° |
| 2026-04-28 06:58 | 28.65025 | 45.32606 | 31846 ft | 407 kts | 285° |
| 2026-04-28 06:58 | 28.67200 | 45.26661 | 31847 ft | 408 kts | 285° |
| 2026-04-28 06:59 | 28.69384 | 45.20684 | 31847 ft | 408 kts | 285° |
| 2026-04-28 06:59 | 28.71549 | 45.14754 | 31847 ft | 408 kts | 285° |
| 2026-04-28 07:00 | 28.73726 | 45.08776 | 31848 ft | 408 kts | 285° |
| 2026-04-28 07:00 | 28.75905 | 45.02787 | 31848 ft | 408 kts | 285° |
| 2026-04-28 07:01 | 28.78081 | 44.96795 | 31848 ft | 409 kts | 285° |
| 2026-04-28 07:01 | 28.80256 | 44.90796 | 31849 ft | 409 kts | 285° |
| 2026-04-28 07:02 | 28.82413 | 44.84835 | 31849 ft | 410 kts | 285° |
| 2026-04-28 07:02 | 28.84586 | 44.78824 | 31849 ft | 410 kts | 285° |
| 2026-04-28 07:03 | 28.86534 | 44.72762 | 31849 ft | 402 kts | 277° |
| 2026-04-28 07:03 | 28.87369 | 44.66473 | 31850 ft | 400 kts | 272° |
| 2026-04-28 07:04 | 28.88093 | 44.60195 | 31850 ft | 399 kts | 272° |
| 2026-04-28 07:04 | 28.88795 | 44.53904 | 31850 ft | 399 kts | 272° |